sensor_id;sensor_type;location;lat;lon;timestamp;pressure;altitude;pressure_sealevel;temperature;humidity
22651;BME280;11492;42.646;23.400;2023-03-20T00:00:49;95389.38;;;6.44;61.13
22651;BME280;11492;42.646;23.400;2023-03-20T00:03:15;95392.16;;;6.67;60.63
22651;BME280;11492;42.646;23.400;2023-03-20T00:05:41;95381.47;;;6.71;59.93
22651;BME280;11492;42.646;23.400;2023-03-20T00:08:06;95385.94;;;6.87;59.99
22651;BME280;11492;42.646;23.400;2023-03-20T00:10:42;95373.09;;;6.87;59.73
22651;BME280;11492;42.646;23.400;2023-03-20T00:13:25;95371.34;;;6.87;59.47
22651;BME280;11492;42.646;23.400;2023-03-20T00:15:52;95359.34;;;6.71;59.45
22651;BME280;11492;42.646;23.400;2023-03-20T00:18:20;95376.91;;;6.83;60.16
22651;BME280;11492;42.646;23.400;2023-03-20T00:20:48;95377.16;;;6.89;59.65
22651;BME280;11492;42.646;23.400;2023-03-20T00:23:14;95367.34;;;6.85;59.85
22651;BME280;11492;42.646;23.400;2023-03-20T00:25:41;95368.72;;;6.79;59.62
22651;BME280;11492;42.646;23.400;2023-03-20T00:28:29;95369.59;;;6.71;59.71
22651;BME280;11492;42.646;23.400;2023-03-20T00:31:01;95351.41;;;6.30;60.81
22651;BME280;11492;42.646;23.400;2023-03-20T00:33:26;95365.41;;;6.18;62.02
22651;BME280;11492;42.646;23.400;2023-03-20T00:35:52;95353.09;;;5.95;62.13
22651;BME280;11492;42.646;23.400;2023-03-20T00:38:17;95349.84;;;5.76;62.92
22651;BME280;11492;42.646;23.400;2023-03-20T00:40:43;95360.50;;;5.72;62.88
22651;BME280;11492;42.646;23.400;2023-03-20T00:43:10;95361.31;;;5.63;64.04
22651;BME280;11492;42.646;23.400;2023-03-20T00:45:37;95354.03;;;5.68;63.33
22651;BME280;11492;42.646;23.400;2023-03-20T00:48:03;95354.16;;;5.75;63.42
22651;BME280;11492;42.646;23.400;2023-03-20T00:50:29;95356.97;;;5.82;63.68
22651;BME280;11492;42.646;23.400;2023-03-20T00:52:56;95365.78;;;5.97;63.29
22651;BME280;11492;42.646;23.400;2023-03-20T00:55:25;95360.16;;;6.10;62.34
22651;BME280;11492;42.646;23.400;2023-03-20T00:57:57;95351.94;;;6.16;61.53
22651;BME280;11492;42.646;23.400;2023-03-20T01:03:16;95347.44;;;6.18;62.27
22651;BME280;11492;42.646;23.400;2023-03-20T01:05:42;95337.34;;;6.17;61.42
22651;BME280;11492;42.646;23.400;2023-03-20T01:08:21;95350.97;;;6.17;61.42
22651;BME280;11492;42.646;23.400;2023-03-20T01:10:57;95342.31;;;6.18;61.40
22651;BME280;11492;42.646;23.400;2023-03-20T01:13:28;95346.44;;;6.11;61.40
22651;BME280;11492;42.646;23.400;2023-03-20T01:15:54;95329.88;;;6.06;60.90
22651;BME280;11492;42.646;23.400;2023-03-20T01:18:22;95325.81;;;6.03;61.81
22651;BME280;11492;42.646;23.400;2023-03-20T01:20:48;95313.22;;;5.93;61.44
22651;BME280;11492;42.646;23.400;2023-03-20T01:23:14;95336.06;;;6.03;61.56
22651;BME280;11492;42.646;23.400;2023-03-20T01:25:40;95341.03;;;6.05;61.00
22651;BME280;11492;42.646;23.400;2023-03-20T01:28:19;95330.25;;;6.11;61.50
22651;BME280;11492;42.646;23.400;2023-03-20T01:30:45;95336.19;;;6.11;61.36
22651;BME280;11492;42.646;23.400;2023-03-20T01:33:16;95340.25;;;6.04;61.95
22651;BME280;11492;42.646;23.400;2023-03-20T01:35:42;95343.50;;;6.06;60.96
22651;BME280;11492;42.646;23.400;2023-03-20T01:38:12;95334.75;;;5.99;61.76
22651;BME280;11492;42.646;23.400;2023-03-20T01:40:58;95343.59;;;6.05;60.82
22651;BME280;11492;42.646;23.400;2023-03-20T01:43:27;95344.28;;;6.07;61.01
22651;BME280;11492;42.646;23.400;2023-03-20T01:48:18;95346.31;;;6.03;60.92
22651;BME280;11492;42.646;23.400;2023-03-20T01:50:44;95352.97;;;5.97;61.91
22651;BME280;11492;42.646;23.400;2023-03-20T01:53:21;95341.59;;;5.82;61.36
22651;BME280;11492;42.646;23.400;2023-03-20T01:55:50;95335.44;;;5.75;61.91
22651;BME280;11492;42.646;23.400;2023-03-20T01:58:33;95349.66;;;5.87;62.23
22651;BME280;11492;42.646;23.400;2023-03-20T02:01:02;95352.50;;;5.84;61.27
22651;BME280;11492;42.646;23.400;2023-03-20T02:03:29;95350.09;;;5.82;62.00
22651;BME280;11492;42.646;23.400;2023-03-20T02:05:55;95346.72;;;5.82;61.43
22651;BME280;11492;42.646;23.400;2023-03-20T02:08:31;95346.72;;;5.82;62.29
22651;BME280;11492;42.646;23.400;2023-03-20T02:11:00;95348.50;;;5.72;62.26
22651;BME280;11492;42.646;23.400;2023-03-20T02:13:28;95331.78;;;5.68;62.92
22651;BME280;11492;42.646;23.400;2023-03-20T02:16:01;95334.09;;;5.71;62.44
22651;BME280;11492;42.646;23.400;2023-03-20T02:18:28;95332.19;;;5.73;62.05
22651;BME280;11492;42.646;23.400;2023-03-20T02:23:43;95338.97;;;5.65;62.81
22651;BME280;11492;42.646;23.400;2023-03-20T02:37:51;95349.81;;;5.40;62.92
22651;BME280;11492;42.646;23.400;2023-03-20T02:54:45;95339.13;;;5.18;64.30
22651;BME280;11492;42.646;23.400;2023-03-20T03:00:02;95331.84;;;5.23;63.69
22651;BME280;11492;42.646;23.400;2023-03-20T03:02:36;95331.56;;;5.17;63.47
22651;BME280;11492;42.646;23.400;2023-03-20T03:05:09;95329.31;;;5.14;64.30
22651;BME280;11492;42.646;23.400;2023-03-20T03:07:36;95327.53;;;5.14;64.44
22651;BME280;11492;42.646;23.400;2023-03-20T03:10:30;95328.94;;;4.99;64.86
22651;BME280;11492;42.646;23.400;2023-03-20T03:13:00;95330.78;;;5.07;64.89
22651;BME280;11492;42.646;23.400;2023-03-20T03:15:34;95334.19;;;5.07;64.36
22651;BME280;11492;42.646;23.400;2023-03-20T03:18:02;95330.41;;;5.02;63.51
22651;BME280;11492;42.646;23.400;2023-03-20T03:20:32;95323.16;;;4.97;64.26
22651;BME280;11492;42.646;23.400;2023-03-20T03:22:59;95327.56;;;5.05;64.39
22651;BME280;11492;42.646;23.400;2023-03-20T03:25:29;95317.75;;;5.00;64.17
22651;BME280;11492;42.646;23.400;2023-03-20T03:30:40;95323.72;;;4.92;63.67
22651;BME280;11492;42.646;23.400;2023-03-20T03:33:24;95332.75;;;4.77;64.89
22651;BME280;11492;42.646;23.400;2023-03-20T03:35:54;95340.56;;;4.66;65.29
22651;BME280;11492;42.646;23.400;2023-03-20T03:38:44;95337.88;;;4.49;65.10
22651;BME280;11492;42.646;23.400;2023-03-20T03:41:21;95336.78;;;4.23;66.48
22651;BME280;11492;42.646;23.400;2023-03-20T03:43:51;95338.13;;;4.18;66.85
22651;BME280;11492;42.646;23.400;2023-03-20T03:46:40;95336.53;;;4.36;66.37
22651;BME280;11492;42.646;23.400;2023-03-20T03:49:07;95330.34;;;4.38;66.09
22651;BME280;11492;42.646;23.400;2023-03-20T03:51:39;95335.31;;;4.21;66.23
22651;BME280;11492;42.646;23.400;2023-03-20T03:54:12;95332.47;;;4.05;66.59
22651;BME280;11492;42.646;23.400;2023-03-20T03:56:42;95339.88;;;4.27;66.47
22651;BME280;11492;42.646;23.400;2023-03-20T03:59:12;95344.47;;;4.42;65.80
22651;BME280;11492;42.646;23.400;2023-03-20T04:01:41;95337.34;;;4.46;65.54
22651;BME280;11492;42.646;23.400;2023-03-20T04:04:09;95327.13;;;4.46;65.73
22651;BME280;11492;42.646;23.400;2023-03-20T04:06:36;95336.53;;;4.45;65.63
22651;BME280;11492;42.646;23.400;2023-03-20T04:09:02;95331.00;;;4.59;65.34
22651;BME280;11492;42.646;23.400;2023-03-20T04:11:27;95326.56;;;4.61;65.42
22651;BME280;11492;42.646;23.400;2023-03-20T04:13:53;95325.34;;;4.65;65.77
22651;BME280;11492;42.646;23.400;2023-03-20T04:16:21;95320.91;;;4.67;66.17
22651;BME280;11492;42.646;23.400;2023-03-20T04:18:46;95320.22;;;4.65;65.60
22651;BME280;11492;42.646;23.400;2023-03-20T04:21:12;95317.41;;;4.68;65.54
22651;BME280;11492;42.646;23.400;2023-03-20T04:23:40;95319.56;;;4.63;65.87
22651;BME280;11492;42.646;23.400;2023-03-20T04:26:06;95317.16;;;4.61;66.36
22651;BME280;11492;42.646;23.400;2023-03-20T04:28:32;95320.13;;;4.66;65.71
22651;BME280;11492;42.646;23.400;2023-03-20T04:30:59;95306.63;;;4.64;65.70
22651;BME280;11492;42.646;23.400;2023-03-20T04:33:25;95319.81;;;4.78;66.96
22651;BME280;11492;42.646;23.400;2023-03-20T04:35:52;95311.06;;;4.81;66.31
22651;BME280;11492;42.646;23.400;2023-03-20T04:38:18;95310.94;;;4.82;66.08
22651;BME280;11492;42.646;23.400;2023-03-20T04:40:44;95302.72;;;4.88;65.35
22651;BME280;11492;42.646;23.400;2023-03-20T04:43:11;95298.41;;;4.79;66.05
22651;BME280;11492;42.646;23.400;2023-03-20T04:45:37;95305.66;;;4.84;65.41
22651;BME280;11492;42.646;23.400;2023-03-20T04:48:02;95300.97;;;4.79;65.47
22651;BME280;11492;42.646;23.400;2023-03-20T04:50:28;95319.81;;;4.88;65.00
22651;BME280;11492;42.646;23.400;2023-03-20T04:52:54;95316.44;;;4.87;65.11
22651;BME280;11492;42.646;23.400;2023-03-20T04:55:20;95306.63;;;4.83;64.86
22651;BME280;11492;42.646;23.400;2023-03-20T04:57:46;95324.91;;;4.88;64.82
22651;BME280;11492;42.646;23.400;2023-03-20T05:00:12;95336.19;;;4.95;65.45
22651;BME280;11492;42.646;23.400;2023-03-20T05:02:37;95337.00;;;5.04;64.62
22651;BME280;11492;42.646;23.400;2023-03-20T05:05:03;95342.22;;;5.12;65.17
22651;BME280;11492;42.646;23.400;2023-03-20T05:07:28;95338.03;;;5.11;65.33
22651;BME280;11492;42.646;23.400;2023-03-20T05:09:54;95347.25;;;4.86;65.41
22651;BME280;11492;42.646;23.400;2023-03-20T05:12:19;95352.66;;;4.73;65.93
22651;BME280;11492;42.646;23.400;2023-03-20T05:14:45;95355.09;;;4.56;66.74
22651;BME280;11492;42.646;23.400;2023-03-20T05:17:10;95342.72;;;4.52;66.58
22651;BME280;11492;42.646;23.400;2023-03-20T05:19:36;95358.06;;;4.61;66.38
22651;BME280;11492;42.646;23.400;2023-03-20T05:22:03;95348.34;;;4.74;66.41
22651;BME280;11492;42.646;23.400;2023-03-20T05:24:28;95351.44;;;4.87;66.44
22651;BME280;11492;42.646;23.400;2023-03-20T05:26:54;95358.00;;;4.98;65.17
22651;BME280;11492;42.646;23.400;2023-03-20T05:29:19;95344.41;;;4.98;65.79
22651;BME280;11492;42.646;23.400;2023-03-20T05:31:45;95350.84;;;5.11;65.18
22651;BME280;11492;42.646;23.400;2023-03-20T05:34:11;95360.41;;;5.19;66.02
22651;BME280;11492;42.646;23.400;2023-03-20T05:36:36;95357.44;;;5.23;64.95
22651;BME280;11492;42.646;23.400;2023-03-20T05:39:02;95366.00;;;5.41;64.97
22651;BME280;11492;42.646;23.400;2023-03-20T05:41:28;95361.66;;;5.41;65.52
22651;BME280;11492;42.646;23.400;2023-03-20T05:43:53;95362.44;;;5.51;65.25
22651;BME280;11492;42.646;23.400;2023-03-20T05:46:19;95357.56;;;5.57;65.29
22651;BME280;11492;42.646;23.400;2023-03-20T05:48:45;95354.22;;;5.57;64.89
22651;BME280;11492;42.646;23.400;2023-03-20T05:51:10;95362.81;;;5.65;65.05
22651;BME280;11492;42.646;23.400;2023-03-20T05:53:36;95360.25;;;5.74;65.27
22651;BME280;11492;42.646;23.400;2023-03-20T05:56:01;95358.88;;;5.80;64.71
22651;BME280;11492;42.646;23.400;2023-03-20T05:58:27;95364.13;;;5.78;65.03
22651;BME280;11492;42.646;23.400;2023-03-20T06:00:52;95356.97;;;5.82;64.30
22651;BME280;11492;42.646;23.400;2023-03-20T06:03:18;95370.59;;;5.99;63.64
22651;BME280;11492;42.646;23.400;2023-03-20T06:05:44;95353.63;;;5.98;62.58
22651;BME280;11492;42.646;23.400;2023-03-20T06:08:09;95361.06;;;6.19;62.67
22651;BME280;11492;42.646;23.400;2023-03-20T06:10:34;95357.47;;;6.12;61.96
22651;BME280;11492;42.646;23.400;2023-03-20T06:13:00;95356.41;;;6.31;62.09
22651;BME280;11492;42.646;23.400;2023-03-20T06:15:28;95357.94;;;6.42;61.52
22651;BME280;11492;42.646;23.400;2023-03-20T06:17:55;95351.06;;;6.59;61.61
22651;BME280;11492;42.646;23.400;2023-03-20T06:20:21;95352.09;;;6.83;61.57
22651;BME280;11492;42.646;23.400;2023-03-20T06:22:46;95359.25;;;6.97;60.31
22651;BME280;11492;42.646;23.400;2023-03-20T06:25:12;95359.69;;;7.10;59.07
22651;BME280;11492;42.646;23.400;2023-03-20T06:27:37;95354.94;;;7.22;59.07
22651;BME280;11492;42.646;23.400;2023-03-20T06:30:04;95363.56;;;7.39;59.54
22651;BME280;11492;42.646;23.400;2023-03-20T06:32:30;95363.28;;;7.49;59.80
22651;BME280;11492;42.646;23.400;2023-03-20T06:34:56;95354.44;;;7.69;57.79
22651;BME280;11492;42.646;23.400;2023-03-20T06:37:21;95358.94;;;7.75;57.73
22651;BME280;11492;42.646;23.400;2023-03-20T06:39:47;95361.25;;;7.86;58.04
22651;BME280;11492;42.646;23.400;2023-03-20T06:42:12;95345.69;;;7.87;58.33
22651;BME280;11492;42.646;23.400;2023-03-20T06:44:38;95361.38;;;8.09;58.78
22651;BME280;11492;42.646;23.400;2023-03-20T06:47:04;95348.41;;;8.19;58.03
22651;BME280;11492;42.646;23.400;2023-03-20T06:49:29;95361.44;;;8.25;56.63
22651;BME280;11492;42.646;23.400;2023-03-20T06:51:55;95352.78;;;8.34;57.58
22651;BME280;11492;42.646;23.400;2023-03-20T06:54:21;95360.53;;;8.49;56.61
22651;BME280;11492;42.646;23.400;2023-03-20T06:56:46;95352.19;;;8.63;56.83
22651;BME280;11492;42.646;23.400;2023-03-20T06:59:12;95345.13;;;8.65;56.67
22651;BME280;11492;42.646;23.400;2023-03-20T07:01:38;95334.06;;;8.80;56.58
22651;BME280;11492;42.646;23.400;2023-03-20T07:04:03;95345.31;;;9.03;55.72
22651;BME280;11492;42.646;23.400;2023-03-20T07:06:29;95338.06;;;9.06;55.77
22651;BME280;11492;42.646;23.400;2023-03-20T07:08:54;95332.72;;;9.16;55.61
22651;BME280;11492;42.646;23.400;2023-03-20T07:11:19;95328.72;;;9.29;55.37
22651;BME280;11492;42.646;23.400;2023-03-20T07:13:45;95336.13;;;9.32;53.39
22651;BME280;11492;42.646;23.400;2023-03-20T07:16:10;95341.59;;;9.37;53.13
22651;BME280;11492;42.646;23.400;2023-03-20T07:18:36;95323.38;;;9.38;53.19
22651;BME280;11492;42.646;23.400;2023-03-20T07:21:04;95342.16;;;9.62;52.67
22651;BME280;11492;42.646;23.400;2023-03-20T07:23:31;95324.91;;;9.78;52.50
22651;BME280;11492;42.646;23.400;2023-03-20T07:25:58;95323.41;;;9.99;52.19
22651;BME280;11492;42.646;23.400;2023-03-20T07:28:24;95326.84;;;10.22;51.36
22651;BME280;11492;42.646;23.400;2023-03-20T07:30:50;95325.81;;;10.31;51.25
22651;BME280;11492;42.646;23.400;2023-03-20T07:33:15;95319.22;;;10.50;50.93
22651;BME280;11492;42.646;23.400;2023-03-20T07:35:41;95315.59;;;10.67;51.03
22651;BME280;11492;42.646;23.400;2023-03-20T07:38:07;95316.31;;;10.75;50.75
22651;BME280;11492;42.646;23.400;2023-03-20T07:40:32;95319.53;;;10.99;50.82
22651;BME280;11492;42.646;23.400;2023-03-20T07:42:58;95315.75;;;11.10;50.46
22651;BME280;11492;42.646;23.400;2023-03-20T07:45:23;95326.13;;;11.24;50.42
22651;BME280;11492;42.646;23.400;2023-03-20T07:47:49;95319.00;;;11.26;50.04
22651;BME280;11492;42.646;23.400;2023-03-20T07:50:15;95321.75;;;11.46;50.09
22651;BME280;11492;42.646;23.400;2023-03-20T07:52:47;95312.13;;;11.55;49.80
22651;BME280;11492;42.646;23.400;2023-03-20T07:55:14;95315.41;;;11.63;49.64
22651;BME280;11492;42.646;23.400;2023-03-20T07:57:40;95319.81;;;11.77;50.14
22651;BME280;11492;42.646;23.400;2023-03-20T08:00:06;95318.03;;;11.92;49.83
22651;BME280;11492;42.646;23.400;2023-03-20T08:02:33;95326.66;;;12.13;48.89
22651;BME280;11492;42.646;23.400;2023-03-20T08:04:58;95329.34;;;12.19;48.81
22651;BME280;11492;42.646;23.400;2023-03-20T08:07:24;95324.16;;;12.19;47.40
22651;BME280;11492;42.646;23.400;2023-03-20T08:09:49;95326.28;;;12.30;48.28
22651;BME280;11492;42.646;23.400;2023-03-20T08:12:15;95330.13;;;12.34;47.85
22651;BME280;11492;42.646;23.400;2023-03-20T08:14:41;95321.00;;;12.38;48.56
22651;BME280;11492;42.646;23.400;2023-03-20T08:17:07;95324.25;;;12.60;47.35
22651;BME280;11492;42.646;23.400;2023-03-20T08:19:33;95325.41;;;13.13;46.23
22651;BME280;11492;42.646;23.400;2023-03-20T08:21:58;95315.94;;;14.07;43.76
22651;BME280;11492;42.646;23.400;2023-03-20T08:24:24;95318.06;;;14.90;43.24
22651;BME280;11492;42.646;23.400;2023-03-20T08:26:49;95318.53;;;15.95;40.30
22651;BME280;11492;42.646;23.400;2023-03-20T08:29:15;95317.94;;;16.55;38.29
22651;BME280;11492;42.646;23.400;2023-03-20T08:31:43;95316.19;;;17.53;37.43
22651;BME280;11492;42.646;23.400;2023-03-20T08:34:09;95320.72;;;17.88;35.57
22651;BME280;11492;42.646;23.400;2023-03-20T08:36:35;95311.63;;;18.50;35.07
22651;BME280;11492;42.646;23.400;2023-03-20T08:39:00;95322.97;;;19.08;33.63
22651;BME280;11492;42.646;23.400;2023-03-20T08:41:25;95324.72;;;19.54;32.46
22651;BME280;11492;42.646;23.400;2023-03-20T08:43:51;95316.72;;;19.49;32.70
22651;BME280;11492;42.646;23.400;2023-03-20T08:46:16;95308.13;;;19.72;33.16
22651;BME280;11492;42.646;23.400;2023-03-20T08:48:42;95301.56;;;20.14;32.45
22651;BME280;11492;42.646;23.400;2023-03-20T08:51:07;95313.94;;;20.41;31.76
22651;BME280;11492;42.646;23.400;2023-03-20T08:53:32;95308.00;;;20.96;31.33
22651;BME280;11492;42.646;23.400;2023-03-20T08:55:58;95304.09;;;21.37;31.36
22651;BME280;11492;42.646;23.400;2023-03-20T08:58:23;95304.97;;;21.15;31.34
22651;BME280;11492;42.646;23.400;2023-03-20T09:00:49;95300.13;;;20.96;31.02
22651;BME280;11492;42.646;23.400;2023-03-20T09:03:17;95297.59;;;21.00;31.27
22651;BME280;11492;42.646;23.400;2023-03-20T09:05:44;95305.03;;;21.31;30.64
22651;BME280;11492;42.646;23.400;2023-03-20T09:08:11;95295.94;;;21.66;30.26
22651;BME280;11492;42.646;23.400;2023-03-20T09:10:37;95290.81;;;21.75;29.83
22651;BME280;11492;42.646;23.400;2023-03-20T09:13:03;95293.13;;;22.21;29.16
22651;BME280;11492;42.646;23.400;2023-03-20T09:15:28;95290.50;;;22.21;29.15
22651;BME280;11492;42.646;23.400;2023-03-20T09:17:53;95281.22;;;22.55;29.67
22651;BME280;11492;42.646;23.400;2023-03-20T09:20:19;95285.72;;;22.76;28.98
22651;BME280;11492;42.646;23.400;2023-03-20T09:22:44;95280.69;;;22.53;29.11
22651;BME280;11492;42.646;23.400;2023-03-20T09:25:11;95280.25;;;22.61;28.91
22651;BME280;11492;42.646;23.400;2023-03-20T09:27:37;95281.41;;;22.70;28.78
22651;BME280;11492;42.646;23.400;2023-03-20T09:30:04;95275.22;;;22.39;29.63
22651;BME280;11492;42.646;23.400;2023-03-20T09:32:31;95278.19;;;22.63;29.73
22651;BME280;11492;42.646;23.400;2023-03-20T09:34:57;95270.16;;;22.96;28.67
22651;BME280;11492;42.646;23.400;2023-03-20T09:37:23;95255.59;;;23.40;28.53
22651;BME280;11492;42.646;23.400;2023-03-20T09:39:48;95267.34;;;23.85;27.71
22651;BME280;11492;42.646;23.400;2023-03-20T09:45:06;95255.63;;;23.71;27.45
22651;BME280;11492;42.646;23.400;2023-03-20T09:50:12;95244.91;;;24.18;27.05
22651;BME280;11492;42.646;23.400;2023-03-20T09:55:22;95231.38;;;23.74;26.27
22651;BME280;11492;42.646;23.400;2023-03-20T09:57:50;95229.78;;;23.73;26.96
22651;BME280;11492;42.646;23.400;2023-03-20T10:00:21;95218.19;;;23.74;26.42
22651;BME280;11492;42.646;23.400;2023-03-20T10:02:58;95210.81;;;24.12;26.91
22651;BME280;11492;42.646;23.400;2023-03-20T10:05:27;95206.81;;;24.09;26.65
22651;BME280;11492;42.646;23.400;2023-03-20T10:07:57;95204.97;;;24.65;26.48
22651;BME280;11492;42.646;23.400;2023-03-20T10:13:24;95190.63;;;25.66;25.13
22651;BME280;11492;42.646;23.400;2023-03-20T10:16:16;95189.28;;;25.34;25.52
22651;BME280;11492;42.646;23.400;2023-03-20T10:21:45;95190.25;;;24.19;25.94
22651;BME280;11492;42.646;23.400;2023-03-20T10:24:31;95188.16;;;24.26;26.30
22651;BME280;11492;42.646;23.400;2023-03-20T10:27:05;95173.84;;;24.77;25.85
22651;BME280;11492;42.646;23.400;2023-03-20T10:32:37;95172.34;;;25.25;24.99
22651;BME280;11492;42.646;23.400;2023-03-20T10:35:12;95165.50;;;25.73;24.75
22651;BME280;11492;42.646;23.400;2023-03-20T10:38:27;95164.97;;;25.56;24.32
22651;BME280;11492;42.646;23.400;2023-03-20T10:40:34;95163.66;;;25.69;24.33
22651;BME280;11492;42.646;23.400;2023-03-20T10:43:08;95165.47;;;25.83;24.48
22651;BME280;11492;42.646;23.400;2023-03-20T10:45:39;95155.13;;;25.86;23.96
22651;BME280;11492;42.646;23.400;2023-03-20T10:48:15;95153.56;;;25.80;23.35
22651;BME280;11492;42.646;23.400;2023-03-20T10:51:01;95149.00;;;26.15;23.99
22651;BME280;11492;42.646;23.400;2023-03-20T10:53:31;95139.50;;;25.90;24.51
22651;BME280;11492;42.646;23.400;2023-03-20T10:56:02;95133.56;;;26.32;23.62
22651;BME280;11492;42.646;23.400;2023-03-20T10:58:34;95135.56;;;26.59;23.23
22651;BME280;11492;42.646;23.400;2023-03-20T11:01:01;95125.44;;;26.76;22.77
22651;BME280;11492;42.646;23.400;2023-03-20T11:03:29;95135.59;;;27.02;21.95
22651;BME280;11492;42.646;23.400;2023-03-20T11:06:27;95124.94;;;27.12;22.39
22651;BME280;11492;42.646;23.400;2023-03-20T11:08:53;95124.53;;;27.61;22.61
22651;BME280;11492;42.646;23.400;2023-03-20T11:11:26;95126.63;;;28.15;21.92
22651;BME280;11492;42.646;23.400;2023-03-20T11:13:53;95110.47;;;28.34;21.79
22651;BME280;11492;42.646;23.400;2023-03-20T11:16:24;95107.31;;;28.92;21.44
22651;BME280;11492;42.646;23.400;2023-03-20T11:18:50;95099.78;;;29.66;20.80
22651;BME280;11492;42.646;23.400;2023-03-20T11:21:28;95100.75;;;30.28;20.17
22651;BME280;11492;42.646;23.400;2023-03-20T11:23:55;95093.59;;;30.63;19.65
22651;BME280;11492;42.646;23.400;2023-03-20T11:29:05;95081.09;;;31.20;18.43
22651;BME280;11492;42.646;23.400;2023-03-20T11:31:38;95088.28;;;31.33;18.87
22651;BME280;11492;42.646;23.400;2023-03-20T11:36:45;95079.72;;;31.23;19.04
22651;BME280;11492;42.646;23.400;2023-03-20T11:39:13;95074.16;;;31.33;18.60
22651;BME280;11492;42.646;23.400;2023-03-20T11:41:45;95070.19;;;31.73;18.05
22651;BME280;11492;42.646;23.400;2023-03-20T11:44:31;95073.69;;;31.60;17.93
22651;BME280;11492;42.646;23.400;2023-03-20T11:47:06;95062.97;;;31.52;18.38
22651;BME280;11492;42.646;23.400;2023-03-20T11:49:47;95061.47;;;31.89;17.80
22651;BME280;11492;42.646;23.400;2023-03-20T11:52:19;95049.22;;;32.43;17.73
22651;BME280;11492;42.646;23.400;2023-03-20T11:54:51;95047.13;;;32.87;17.47
22651;BME280;11492;42.646;23.400;2023-03-20T11:57:37;95036.56;;;33.32;17.09
22651;BME280;11492;42.646;23.400;2023-03-20T12:02:39;95034.84;;;33.19;16.66
22651;BME280;11492;42.646;23.400;2023-03-20T12:05:30;95033.34;;;33.63;16.74
22651;BME280;11492;42.646;23.400;2023-03-20T12:08:00;95029.09;;;34.08;15.84
22651;BME280;11492;42.646;23.400;2023-03-20T12:10:30;95023.94;;;34.68;15.66
22651;BME280;11492;42.646;23.400;2023-03-20T12:13:06;95023.75;;;34.36;15.52
22651;BME280;11492;42.646;23.400;2023-03-20T12:15:40;95023.47;;;34.86;15.70
22651;BME280;11492;42.646;23.400;2023-03-20T12:18:16;95024.22;;;35.15;14.57
22651;BME280;11492;42.646;23.400;2023-03-20T12:29:06;94995.56;;;37.04;13.45
22651;BME280;11492;42.646;23.400;2023-03-20T12:36:54;94991.91;;;36.96;13.68
22651;BME280;11492;42.646;23.400;2023-03-20T12:39:27;94996.00;;;36.55;13.56
22651;BME280;11492;42.646;23.400;2023-03-20T12:45:11;94986.41;;;37.47;13.83
22651;BME280;11492;42.646;23.400;2023-03-20T12:50:34;94969.94;;;36.83;13.80
22651;BME280;11492;42.646;23.400;2023-03-20T13:01:15;94953.19;;;36.39;14.06
22651;BME280;11492;42.646;23.400;2023-03-20T13:09:25;94951.94;;;32.14;16.18
22651;BME280;11492;42.646;23.400;2023-03-20T13:18:07;94945.56;;;29.07;17.40
22651;BME280;11492;42.646;23.400;2023-03-20T13:23:29;94933.03;;;28.27;17.91
22651;BME280;11492;42.646;23.400;2023-03-20T13:32:58;94925.09;;;26.93;20.12
22651;BME280;11492;42.646;23.400;2023-03-20T13:35:32;94926.66;;;26.94;19.47
22651;BME280;11492;42.646;23.400;2023-03-20T13:38:18;94918.84;;;26.79;19.07
22651;BME280;11492;42.646;23.400;2023-03-20T13:40:46;94921.88;;;26.68;18.47
22651;BME280;11492;42.646;23.400;2023-03-20T13:43:20;94904.81;;;26.46;18.76
22651;BME280;11492;42.646;23.400;2023-03-20T13:45:51;94897.09;;;26.17;18.86
22651;BME280;11492;42.646;23.400;2023-03-20T13:48:37;94895.09;;;25.99;19.30
22651;BME280;11492;42.646;23.400;2023-03-20T14:01:33;94895.72;;;25.14;19.93
22651;BME280;11492;42.646;23.400;2023-03-20T14:04:02;94893.66;;;25.06;20.28
22651;BME280;11492;42.646;23.400;2023-03-20T14:06:48;94887.31;;;25.02;20.32
22651;BME280;11492;42.646;23.400;2023-03-20T14:12:01;94883.13;;;24.92;20.70
22651;BME280;11492;42.646;23.400;2023-03-20T14:14:30;94879.13;;;24.94;20.65
22651;BME280;11492;42.646;23.400;2023-03-20T14:19:33;94876.25;;;24.91;20.53
22651;BME280;11492;42.646;23.400;2023-03-20T14:21:59;94874.69;;;24.85;20.36
22651;BME280;11492;42.646;23.400;2023-03-20T14:24:26;94865.69;;;24.71;20.13
22651;BME280;11492;42.646;23.400;2023-03-20T14:26:56;94867.28;;;24.72;20.28
22651;BME280;11492;42.646;23.400;2023-03-20T14:29:30;94860.94;;;24.73;20.56
22651;BME280;11492;42.646;23.400;2023-03-20T14:34:47;94859.69;;;24.36;20.77
22651;BME280;11492;42.646;23.400;2023-03-20T14:40:18;94849.34;;;23.96;20.36
22651;BME280;11492;42.646;23.400;2023-03-20T14:56:32;94842.50;;;24.00;21.20
22651;BME280;11492;42.646;23.400;2023-03-20T14:59:15;94848.56;;;23.80;21.03
22651;BME280;11492;42.646;23.400;2023-03-20T15:01:46;94839.31;;;23.68;22.43
22651;BME280;11492;42.646;23.400;2023-03-20T15:04:19;94844.50;;;23.29;22.13
22651;BME280;11492;42.646;23.400;2023-03-20T15:07:12;94846.81;;;23.16;22.05
22651;BME280;11492;42.646;23.400;2023-03-20T15:09:42;94843.34;;;23.05;22.94
22651;BME280;11492;42.646;23.400;2023-03-20T15:12:12;94843.31;;;22.96;23.26
22651;BME280;11492;42.646;23.400;2023-03-20T15:14:58;94847.75;;;22.85;25.63
22651;BME280;11492;42.646;23.400;2023-03-20T15:17:33;94839.69;;;22.66;25.76
22651;BME280;11492;42.646;23.400;2023-03-20T15:20:24;94845.09;;;22.45;26.16
22651;BME280;11492;42.646;23.400;2023-03-20T15:22:58;94837.63;;;22.27;26.90
22651;BME280;11492;42.646;23.400;2023-03-20T15:25:32;94837.53;;;22.12;27.86
22651;BME280;11492;42.646;23.400;2023-03-20T15:28:00;94847.63;;;21.99;28.68
22651;BME280;11492;42.646;23.400;2023-03-20T15:30:31;94843.88;;;21.85;28.79
22651;BME280;11492;42.646;23.400;2023-03-20T15:32:58;94838.78;;;21.74;28.88
22651;BME280;11492;42.646;23.400;2023-03-20T15:35:25;94823.88;;;21.53;29.00